sensor_id;sensor_type;location;lat;lon;timestamp;pressure;altitude;pressure_sealevel;temperature;humidity
34124;BME280;13153;52.316;21.166;2023-09-19T00:00:46;99748.97;;;25.08;52.62
34124;BME280;13153;52.316;21.166;2023-09-19T00:03:15;99739.28;;;25.04;52.78
34124;BME280;13153;52.316;21.166;2023-09-19T00:05:41;99746.41;;;25.05;52.59
34124;BME280;13153;52.316;21.166;2023-09-19T00:08:10;99738.59;;;24.98;53.18
34124;BME280;13153;52.316;21.166;2023-09-19T00:10:38;99742.16;;;24.99;53.03
34124;BME280;13153;52.316;21.166;2023-09-19T00:13:06;99742.31;;;24.94;53.35
34124;BME280;13153;52.316;21.166;2023-09-19T00:15:44;99743.38;;;24.90;53.08
34124;BME280;13153;52.316;21.166;2023-09-19T00:18:18;99736.38;;;24.86;53.38
34124;BME280;13153;52.316;21.166;2023-09-19T00:20:47;99736.81;;;24.77;53.63
34124;BME280;13153;52.316;21.166;2023-09-19T00:23:17;99736.81;;;24.77;53.70
34124;BME280;13153;52.316;21.166;2023-09-19T00:25:44;99733.44;;;24.72;53.66
34124;BME280;13153;52.316;21.166;2023-09-19T00:28:10;99733.44;;;24.72;53.55
34124;BME280;13153;52.316;21.166;2023-09-19T00:30:37;99728.97;;;24.71;54.07
34124;BME280;13153;52.316;21.166;2023-09-19T00:33:04;99730.75;;;24.72;53.57
34124;BME280;13153;52.316;21.166;2023-09-19T00:35:32;99740.69;;;24.70;53.68
34124;BME280;13153;52.316;21.166;2023-09-19T00:37:58;99727.28;;;24.68;54.07
34124;BME280;13153;52.316;21.166;2023-09-19T00:40:24;99722.97;;;24.64;53.78
34124;BME280;13153;52.316;21.166;2023-09-19T00:42:51;99739.19;;;24.63;54.22
34124;BME280;13153;52.316;21.166;2023-09-19T00:45:18;99737.50;;;24.60;54.36
34124;BME280;13153;52.316;21.166;2023-09-19T00:47:49;99739.44;;;24.57;54.14
34124;BME280;13153;52.316;21.166;2023-09-19T00:50:21;99721.53;;;24.56;54.10
34124;BME280;13153;52.316;21.166;2023-09-19T00:52:50;99723.28;;;24.57;54.39
34124;BME280;13153;52.316;21.166;2023-09-19T00:55:18;99721.41;;;24.59;54.37
34124;BME280;13153;52.316;21.166;2023-09-19T00:57:46;99714.16;;;24.61;54.15
34124;BME280;13153;52.316;21.166;2023-09-19T01:00:13;99719.78;;;24.55;54.43
34124;BME280;13153;52.316;21.166;2023-09-19T01:02:45;99718.16;;;24.51;54.53
34124;BME280;13153;52.316;21.166;2023-09-19T01:05:11;99706.59;;;24.49;54.56
34124;BME280;13153;52.316;21.166;2023-09-19T01:07:41;99719.22;;;24.47;54.79
34124;BME280;13153;52.316;21.166;2023-09-19T01:10:27;99706.91;;;24.41;54.83
34124;BME280;13153;52.316;21.166;2023-09-19T01:13:15;99710.41;;;24.43;54.55
34124;BME280;13153;52.316;21.166;2023-09-19T01:16:31;99705.78;;;24.47;54.27
34124;BME280;13153;52.316;21.166;2023-09-19T01:19:45;99700.41;;;24.47;54.71
34124;BME280;13153;52.316;21.166;2023-09-19T01:25:51;99701.34;;;24.46;54.73
34124;BME280;13153;52.316;21.166;2023-09-19T01:31:14;99685.34;;;24.43;54.71
34124;BME280;13153;52.316;21.166;2023-09-19T01:34:01;99691.66;;;24.42;54.71
34124;BME280;13153;52.316;21.166;2023-09-19T01:36:35;99677.38;;;24.40;54.59
34124;BME280;13153;52.316;21.166;2023-09-19T01:39:05;99684.66;;;24.38;54.64
34124;BME280;13153;52.316;21.166;2023-09-19T01:47:55;99674.88;;;24.35;54.62
34124;BME280;13153;52.316;21.166;2023-09-19T01:50:55;99672.25;;;24.33;54.55
34124;BME280;13153;52.316;21.166;2023-09-19T01:53:33;99679.50;;;24.31;54.91
34124;BME280;13153;52.316;21.166;2023-09-19T01:56:01;99664.25;;;24.32;54.64
34124;BME280;13153;52.316;21.166;2023-09-19T01:58:37;99665.19;;;24.31;54.43
34124;BME280;13153;52.316;21.166;2023-09-19T02:01:08;99675.19;;;24.27;54.76
34124;BME280;13153;52.316;21.166;2023-09-19T02:03:38;99668.00;;;24.28;54.96
34124;BME280;13153;52.316;21.166;2023-09-19T02:06:04;99672.44;;;24.29;54.61
34124;BME280;13153;52.316;21.166;2023-09-19T02:08:31;99672.50;;;24.27;54.61
34124;BME280;13153;52.316;21.166;2023-09-19T02:11:00;99670.81;;;24.25;54.74
34124;BME280;13153;52.316;21.166;2023-09-19T02:13:26;99661.25;;;24.18;55.38
34124;BME280;13153;52.316;21.166;2023-09-19T02:15:53;99659.50;;;24.17;55.26
34124;BME280;13153;52.316;21.166;2023-09-19T02:18:19;99662.13;;;24.18;55.20
34124;BME280;13153;52.316;21.166;2023-09-19T02:20:45;99655.88;;;24.18;54.96
34124;BME280;13153;52.316;21.166;2023-09-19T02:23:12;99657.69;;;24.17;55.22
34124;BME280;13153;52.316;21.166;2023-09-19T02:25:39;99658.69;;;24.15;55.46
34124;BME280;13153;52.316;21.166;2023-09-19T02:28:06;99653.31;;;24.15;55.31
34124;BME280;13153;52.316;21.166;2023-09-19T02:30:33;99654.25;;;24.14;55.14
34124;BME280;13153;52.316;21.166;2023-09-19T02:32:59;99640.88;;;24.12;55.52
34124;BME280;13153;52.316;21.166;2023-09-19T02:35:28;99651.63;;;24.12;55.23
34124;BME280;13153;52.316;21.166;2023-09-19T02:37:54;99644.38;;;24.14;55.53
34124;BME280;13153;52.316;21.166;2023-09-19T02:40:20;99650.75;;;24.12;55.16
34124;BME280;13153;52.316;21.166;2023-09-19T02:42:53;99648.06;;;24.12;55.17
34124;BME280;13153;52.316;21.166;2023-09-19T02:45:20;99644.44;;;24.13;55.37
34124;BME280;13153;52.316;21.166;2023-09-19T02:47:47;99625.75;;;24.10;55.49
34124;BME280;13153;52.316;21.166;2023-09-19T02:50:14;99634.00;;;24.05;55.50
34124;BME280;13153;52.316;21.166;2023-09-19T02:52:44;99637.75;;;24.01;55.54
34124;BME280;13153;52.316;21.166;2023-09-19T02:55:13;99629.81;;;23.98;55.75
34124;BME280;13153;52.316;21.166;2023-09-19T02:57:49;99620.00;;;23.97;55.46
34124;BME280;13153;52.316;21.166;2023-09-19T03:00:17;99621.03;;;23.93;55.91
34124;BME280;13153;52.316;21.166;2023-09-19T03:02:54;99620.22;;;23.91;55.83
34124;BME280;13153;52.316;21.166;2023-09-19T03:05:21;99622.91;;;23.91;55.49
34124;BME280;13153;52.316;21.166;2023-09-19T03:07:49;99618.47;;;23.90;55.60
34124;BME280;13153;52.316;21.166;2023-09-19T03:10:20;99624.91;;;23.86;55.79
34124;BME280;13153;52.316;21.166;2023-09-19T03:12:50;99623.09;;;23.86;55.58
34124;BME280;13153;52.316;21.166;2023-09-19T03:15:16;99619.53;;;23.86;56.02
34124;BME280;13153;52.316;21.166;2023-09-19T03:17:48;99617.84;;;23.83;55.63
34124;BME280;13153;52.316;21.166;2023-09-19T03:20:15;99617.84;;;23.83;55.85
34124;BME280;13153;52.316;21.166;2023-09-19T03:22:45;99608.03;;;23.82;55.81
34124;BME280;13153;52.316;21.166;2023-09-19T03:25:11;99602.66;;;23.82;55.68
34124;BME280;13153;52.316;21.166;2023-09-19T03:27:40;99602.91;;;23.76;56.18
34124;BME280;13153;52.316;21.166;2023-09-19T03:30:07;99593.97;;;23.76;55.96
34124;BME280;13153;52.316;21.166;2023-09-19T03:32:45;99606.53;;;23.75;55.82
34124;BME280;13153;52.316;21.166;2023-09-19T03:35:12;99604.78;;;23.74;55.93
34124;BME280;13153;52.316;21.166;2023-09-19T03:37:41;99609.16;;;23.77;55.83
34124;BME280;13153;52.316;21.166;2023-09-19T03:40:09;99604.72;;;23.76;56.13
34124;BME280;13153;52.316;21.166;2023-09-19T03:42:39;99593.16;;;23.74;56.12
34124;BME280;13153;52.316;21.166;2023-09-19T03:45:07;99601.03;;;23.78;55.93
34124;BME280;13153;52.316;21.166;2023-09-19T03:47:36;99597.47;;;23.78;56.00
34124;BME280;13153;52.316;21.166;2023-09-19T03:50:03;99589.34;;;23.79;55.90
34124;BME280;13153;52.316;21.166;2023-09-19T03:52:29;99594.66;;;23.81;55.69
34124;BME280;13153;52.316;21.166;2023-09-19T03:54:54;99592.84;;;23.81;55.73
34124;BME280;13153;52.316;21.166;2023-09-19T03:57:20;99586.66;;;23.79;56.05
34124;BME280;13153;52.316;21.166;2023-09-19T03:59:46;99584.03;;;23.78;55.91
34124;BME280;13153;52.316;21.166;2023-09-19T04:02:13;99579.47;;;23.80;56.13
34124;BME280;13153;52.316;21.166;2023-09-19T04:04:48;99589.34;;;23.79;55.74
34124;BME280;13153;52.316;21.166;2023-09-19T04:07:14;99584.97;;;23.77;56.00
34124;BME280;13153;52.316;21.166;2023-09-19T04:09:40;99584.09;;;23.76;55.81
34124;BME280;13153;52.316;21.166;2023-09-19T04:12:07;99589.59;;;23.73;56.17
34124;BME280;13153;52.316;21.166;2023-09-19T04:14:36;99588.72;;;23.73;56.12
34124;BME280;13153;52.316;21.166;2023-09-19T04:17:03;99586.09;;;23.71;55.90
34124;BME280;13153;52.316;21.166;2023-09-19T04:19:29;99579.84;;;23.70;55.84
34124;BME280;13153;52.316;21.166;2023-09-19T04:21:54;99580.72;;;23.71;56.32
34124;BME280;13153;52.316;21.166;2023-09-19T04:24:20;99573.59;;;23.70;55.79
34124;BME280;13153;52.316;21.166;2023-09-19T04:26:46;99567.34;;;23.69;56.04
34124;BME280;13153;52.316;21.166;2023-09-19T04:29:12;99560.22;;;23.68;56.17
34124;BME280;13153;52.316;21.166;2023-09-19T04:31:40;99562.13;;;23.66;56.25
34124;BME280;13153;52.316;21.166;2023-09-19T04:34:06;99567.50;;;23.66;56.13
34124;BME280;13153;52.316;21.166;2023-09-19T04:36:33;99562.25;;;23.63;56.27
34124;BME280;13153;52.316;21.166;2023-09-19T04:38:59;99563.25;;;23.61;56.50
34124;BME280;13153;52.316;21.166;2023-09-19T04:41:25;99558.88;;;23.58;56.42
34124;BME280;13153;52.316;21.166;2023-09-19T04:43:50;99560.50;;;23.62;56.30
34124;BME280;13153;52.316;21.166;2023-09-19T04:46:16;99562.38;;;23.60;56.46
34124;BME280;13153;52.316;21.166;2023-09-19T04:48:43;99556.06;;;23.61;56.43
34124;BME280;13153;52.316;21.166;2023-09-19T04:51:09;99556.13;;;23.60;56.47
34124;BME280;13153;52.316;21.166;2023-09-19T04:53:36;99555.38;;;23.56;56.55
34124;BME280;13153;52.316;21.166;2023-09-19T04:56:02;99557.00;;;23.60;56.33
34124;BME280;13153;52.316;21.166;2023-09-19T04:58:29;99558.63;;;23.64;56.05
34124;BME280;13153;52.316;21.166;2023-09-19T05:00:55;99552.06;;;23.71;56.14
34124;BME280;13153;52.316;21.166;2023-09-19T05:03:22;99547.63;;;23.70;56.39
34124;BME280;13153;52.316;21.166;2023-09-19T05:05:48;99548.31;;;23.76;55.74
34124;BME280;13153;52.316;21.166;2023-09-19T05:08:14;99552.44;;;23.84;56.06
34124;BME280;13153;52.316;21.166;2023-09-19T05:10:40;99543.00;;;23.96;55.77
34124;BME280;13153;52.316;21.166;2023-09-19T05:13:06;99541.78;;;24.03;55.39
34124;BME280;13153;52.316;21.166;2023-09-19T05:15:35;99541.47;;;24.11;55.17
34124;BME280;13153;52.316;21.166;2023-09-19T05:18:01;99533.84;;;24.22;55.22
34124;BME280;13153;52.316;21.166;2023-09-19T05:20:27;99546.63;;;24.37;54.38
34124;BME280;13153;52.316;21.166;2023-09-19T05:23:07;99538.03;;;24.49;54.45
34124;BME280;13153;52.316;21.166;2023-09-19T05:25:36;99546.44;;;24.62;53.98
34124;BME280;13153;52.316;21.166;2023-09-19T05:28:10;99536.81;;;24.77;53.86
34124;BME280;13153;52.316;21.166;2023-09-19T05:30:40;99543.41;;;24.88;53.48
34124;BME280;13153;52.316;21.166;2023-09-19T05:33:09;99543.69;;;25.02;53.07
34124;BME280;13153;52.316;21.166;2023-09-19T05:35:35;99547.22;;;25.23;52.76
34124;BME280;13153;52.316;21.166;2023-09-19T05:38:07;99542.50;;;25.28;52.09
34124;BME280;13153;52.316;21.166;2023-09-19T05:40:37;99540.31;;;25.37;52.10
34124;BME280;13153;52.316;21.166;2023-09-19T05:43:04;99534.78;;;25.40;51.65
34124;BME280;13153;52.316;21.166;2023-09-19T05:45:31;99533.41;;;25.31;52.28
34124;BME280;13153;52.316;21.166;2023-09-19T05:48:09;99542.84;;;25.21;52.40
34124;BME280;13153;52.316;21.166;2023-09-19T05:50:35;99535.19;;;25.12;52.68
34124;BME280;13153;52.316;21.166;2023-09-19T05:53:01;99536.50;;;25.03;52.99
34124;BME280;13153;52.316;21.166;2023-09-19T05:55:27;99535.22;;;24.91;53.20
34124;BME280;13153;52.316;21.166;2023-09-19T05:57:54;99535.66;;;24.82;53.27
34124;BME280;13153;52.316;21.166;2023-09-19T06:00:22;99531.28;;;24.80;53.24
34124;BME280;13153;52.316;21.166;2023-09-19T06:02:56;99528.00;;;24.73;53.89
34124;BME280;13153;52.316;21.166;2023-09-19T06:05:24;99527.19;;;24.71;53.80
34124;BME280;13153;52.316;21.166;2023-09-19T06:07:52;99525.44;;;24.70;54.11
34124;BME280;13153;52.316;21.166;2023-09-19T06:10:19;99527.06;;;24.74;53.63
34124;BME280;13153;52.316;21.166;2023-09-19T06:12:48;99528.53;;;24.81;53.81
34124;BME280;13153;52.316;21.166;2023-09-19T06:15:15;99520.00;;;24.90;53.22
34124;BME280;13153;52.316;21.166;2023-09-19T06:17:52;99534.53;;;25.07;53.50
34124;BME280;13153;52.316;21.166;2023-09-19T06:20:21;99531.41;;;25.16;52.89
34124;BME280;13153;52.316;21.166;2023-09-19T06:22:49;99533.25;;;25.15;53.18
34124;BME280;13153;52.316;21.166;2023-09-19T06:25:16;99552.75;;;25.20;52.62
34124;BME280;13153;52.316;21.166;2023-09-19T06:27:49;99560.63;;;25.25;53.02
34124;BME280;13153;52.316;21.166;2023-09-19T06:30:18;99576.56;;;25.29;53.03
34124;BME280;13153;52.316;21.166;2023-09-19T06:32:44;99579.84;;;25.36;53.10
34124;BME280;13153;52.316;21.166;2023-09-19T06:35:12;99570.50;;;25.43;52.86
34124;BME280;13153;52.316;21.166;2023-09-19T06:37:39;99571.50;;;25.59;52.70
34124;BME280;13153;52.316;21.166;2023-09-19T06:40:13;99568.69;;;25.81;52.40
34124;BME280;13153;52.316;21.166;2023-09-19T06:42:51;99572.31;;;25.99;51.70
34124;BME280;13153;52.316;21.166;2023-09-19T06:45:21;99568.97;;;26.11;51.21
34124;BME280;13153;52.316;21.166;2023-09-19T06:47:50;99571.25;;;26.38;50.66
34124;BME280;13153;52.316;21.166;2023-09-19T06:50:23;99574.25;;;26.66;49.92
34124;BME280;13153;52.316;21.166;2023-09-19T06:52:54;99564.38;;;26.82;49.44
34124;BME280;13153;52.316;21.166;2023-09-19T06:55:22;99574.25;;;27.16;48.98
34124;BME280;13153;52.316;21.166;2023-09-19T06:57:51;99581.59;;;27.63;47.71
34124;BME280;13153;52.316;21.166;2023-09-19T07:00:17;99576.88;;;27.98;47.28
34124;BME280;13153;52.316;21.166;2023-09-19T07:02:44;99569.78;;;28.11;46.59
34124;BME280;13153;52.316;21.166;2023-09-19T07:05:10;99575.97;;;28.29;46.35
34124;BME280;13153;52.316;21.166;2023-09-19T07:07:36;99581.75;;;28.53;46.12
34124;BME280;13153;52.316;21.166;2023-09-19T07:10:03;99576.56;;;28.64;45.51
34124;BME280;13153;52.316;21.166;2023-09-19T07:12:32;99570.41;;;28.76;45.17
34124;BME280;13153;52.316;21.166;2023-09-19T07:15:00;99586.13;;;28.85;44.87
34124;BME280;13153;52.316;21.166;2023-09-19T07:17:26;99581.47;;;28.87;44.72
34124;BME280;13153;52.316;21.166;2023-09-19T07:19:53;99584.47;;;28.97;44.77
34124;BME280;13153;52.316;21.166;2023-09-19T07:22:19;99587.06;;;28.99;45.25
34124;BME280;13153;52.316;21.166;2023-09-19T07:24:45;99584.94;;;29.04;45.03
34124;BME280;13153;52.316;21.166;2023-09-19T07:27:12;99581.38;;;29.17;44.47
34124;BME280;13153;52.316;21.166;2023-09-19T07:29:38;99591.59;;;29.42;44.25
34124;BME280;13153;52.316;21.166;2023-09-19T07:32:04;99597.34;;;29.65;43.48
34124;BME280;13153;52.316;21.166;2023-09-19T07:34:31;99593.47;;;29.69;43.52
34124;BME280;13153;52.316;21.166;2023-09-19T07:36:57;99589.09;;;29.66;44.04
34124;BME280;13153;52.316;21.166;2023-09-19T07:39:22;99590.28;;;29.62;43.48
34124;BME280;13153;52.316;21.166;2023-09-19T07:41:48;99596.97;;;29.56;43.94
34124;BME280;13153;52.316;21.166;2023-09-19T07:44:15;99603.84;;;29.48;43.71
34124;BME280;13153;52.316;21.166;2023-09-19T07:46:41;99606.78;;;29.45;44.10
34124;BME280;13153;52.316;21.166;2023-09-19T07:49:06;99615.97;;;29.42;43.73
34124;BME280;13153;52.316;21.166;2023-09-19T07:51:33;99625.53;;;29.34;44.34
34124;BME280;13153;52.316;21.166;2023-09-19T07:53:59;99625.59;;;29.18;44.38
34124;BME280;13153;52.316;21.166;2023-09-19T07:56:25;99619.38;;;29.02;44.29
34124;BME280;13153;52.316;21.166;2023-09-19T07:58:53;99618.31;;;28.90;44.35
34124;BME280;13153;52.316;21.166;2023-09-19T08:01:18;99620.53;;;28.83;44.50
34124;BME280;13153;52.316;21.166;2023-09-19T08:03:44;99627.22;;;28.92;44.53
34124;BME280;13153;52.316;21.166;2023-09-19T08:06:10;99619.19;;;29.05;44.86
34124;BME280;13153;52.316;21.166;2023-09-19T08:08:37;99624.75;;;29.17;44.99
34124;BME280;13153;52.316;21.166;2023-09-19T08:11:04;99622.31;;;29.27;44.98
34124;BME280;13153;52.316;21.166;2023-09-19T08:13:41;99633.38;;;29.38;44.38
34124;BME280;13153;52.316;21.166;2023-09-19T08:16:11;99625.06;;;29.41;43.89
34124;BME280;13153;52.316;21.166;2023-09-19T08:18:37;99630.84;;;29.35;44.41
34124;BME280;13153;52.316;21.166;2023-09-19T08:21:06;99645.16;;;29.23;44.62
34124;BME280;13153;52.316;21.166;2023-09-19T08:23:39;99631.50;;;29.10;45.16
34124;BME280;13153;52.316;21.166;2023-09-19T08:26:06;99629.25;;;29.03;45.36
34124;BME280;13153;52.316;21.166;2023-09-19T08:28:34;99632.84;;;29.03;45.29
34124;BME280;13153;52.316;21.166;2023-09-19T08:31:04;99633.34;;;29.10;44.95
34124;BME280;13153;52.316;21.166;2023-09-19T08:33:35;99638.09;;;29.20;44.81
34124;BME280;13153;52.316;21.166;2023-09-19T08:36:06;99636.66;;;29.29;45.07
34124;BME280;13153;52.316;21.166;2023-09-19T08:38:35;99641.00;;;29.32;44.74
34124;BME280;13153;52.316;21.166;2023-09-19T08:41:06;99644.00;;;29.27;45.10
34124;BME280;13153;52.316;21.166;2023-09-19T08:43:33;99640.53;;;29.25;44.70
34124;BME280;13153;52.316;21.166;2023-09-19T08:46:15;99643.41;;;29.22;44.96
34124;BME280;13153;52.316;21.166;2023-09-19T08:49:05;99637.41;;;29.17;44.82
34124;BME280;13153;52.316;21.166;2023-09-19T08:51:43;99646.97;;;29.08;45.18
34124;BME280;13153;52.316;21.166;2023-09-19T08:54:24;99651.13;;;29.00;45.57
34124;BME280;13153;52.316;21.166;2023-09-19T08:56:56;99641.44;;;28.96;45.12
34124;BME280;13153;52.316;21.166;2023-09-19T08:59:26;99644.16;;;28.96;45.33
34124;BME280;13153;52.316;21.166;2023-09-19T09:01:55;99637.75;;;28.97;45.26
34124;BME280;13153;52.316;21.166;2023-09-19T09:04:23;99642.91;;;29.01;45.59
34124;BME280;13153;52.316;21.166;2023-09-19T09:06:53;99645.31;;;29.06;45.22
34124;BME280;13153;52.316;21.166;2023-09-19T09:09:20;99645.22;;;29.07;45.36
34124;BME280;13153;52.316;21.166;2023-09-19T09:11:48;99645.41;;;29.04;45.14
34124;BME280;13153;52.316;21.166;2023-09-19T09:14:20;99647.53;;;28.99;45.31
34124;BME280;13153;52.316;21.166;2023-09-19T09:16:47;99646.94;;;28.94;45.74
34124;BME280;13153;52.316;21.166;2023-09-19T09:19:14;99652.66;;;28.89;45.38
34124;BME280;13153;52.316;21.166;2023-09-19T09:21:46;99654.78;;;28.84;45.42
34124;BME280;13153;52.316;21.166;2023-09-19T09:24:31;99662.66;;;28.73;46.17
34124;BME280;13153;52.316;21.166;2023-09-19T09:26:59;99668.88;;;28.59;46.80
34124;BME280;13153;52.316;21.166;2023-09-19T09:29:43;99679.91;;;28.41;46.82
34124;BME280;13153;52.316;21.166;2023-09-19T09:32:29;99676.47;;;28.23;47.57
34124;BME280;13153;52.316;21.166;2023-09-19T09:35:01;99681.91;;;28.06;47.69
34124;BME280;13153;52.316;21.166;2023-09-19T09:37:28;99685.38;;;27.92;47.95
34124;BME280;13153;52.316;21.166;2023-09-19T09:39:57;99691.47;;;27.80;48.17
34124;BME280;13153;52.316;21.166;2023-09-19T09:42:44;99702.22;;;27.66;48.54
34124;BME280;13153;52.316;21.166;2023-09-19T09:45:16;99703.78;;;27.52;48.84
34124;BME280;13153;52.316;21.166;2023-09-19T09:48:04;99704.38;;;27.42;48.83
34124;BME280;13153;52.316;21.166;2023-09-19T09:50:47;99706.84;;;27.29;49.25
34124;BME280;13153;52.316;21.166;2023-09-19T09:53:29;99712.72;;;27.20;49.70
34124;BME280;13153;52.316;21.166;2023-09-19T09:56:08;99708.00;;;27.08;50.16
34124;BME280;13153;52.316;21.166;2023-09-19T10:01:13;99716.06;;;26.90;50.80
34124;BME280;13153;52.316;21.166;2023-09-19T10:03:42;99708.44;;;26.81;51.08
34124;BME280;13153;52.316;21.166;2023-09-19T10:06:17;99719.53;;;26.75;51.46
34124;BME280;13153;52.316;21.166;2023-09-19T10:09:08;99706.50;;;26.66;52.35
34124;BME280;13153;52.316;21.166;2023-09-19T10:11:45;99712.28;;;26.58;53.42
34124;BME280;13153;52.316;21.166;2023-09-19T10:14:13;99708.88;;;26.55;53.79
34124;BME280;13153;52.316;21.166;2023-09-19T10:16:48;99704.59;;;26.51;54.05
34124;BME280;13153;52.316;21.166;2023-09-19T10:19:23;99707.53;;;26.46;54.38
34124;BME280;13153;52.316;21.166;2023-09-19T10:21:54;99702.41;;;26.40;54.73
34124;BME280;13153;52.316;21.166;2023-09-19T10:24:25;99716.22;;;26.34;55.15
34124;BME280;13153;52.316;21.166;2023-09-19T10:26:53;99724.50;;;26.29;55.52
34124;BME280;13153;52.316;21.166;2023-09-19T10:29:21;99730.19;;;26.23;55.38
34124;BME280;13153;52.316;21.166;2023-09-19T10:31:52;99730.63;;;26.14;55.50
34124;BME280;13153;52.316;21.166;2023-09-19T10:34:20;99733.69;;;26.07;55.96
34124;BME280;13153;52.316;21.166;2023-09-19T10:36:51;99729.56;;;25.99;56.10
34124;BME280;13153;52.316;21.166;2023-09-19T10:39:17;99734.34;;;25.93;56.79
34124;BME280;13153;52.316;21.166;2023-09-19T10:41:55;99744.47;;;25.88;56.78
34124;BME280;13153;52.316;21.166;2023-09-19T10:44:25;99734.72;;;25.85;56.98
34124;BME280;13153;52.316;21.166;2023-09-19T10:46:52;99744.63;;;25.85;56.99
34124;BME280;13153;52.316;21.166;2023-09-19T10:49:21;99740.97;;;25.86;57.33
34124;BME280;13153;52.316;21.166;2023-09-19T10:51:51;99738.13;;;25.89;57.19
34124;BME280;13153;52.316;21.166;2023-09-19T10:54:23;99738.00;;;25.92;57.34
34124;BME280;13153;52.316;21.166;2023-09-19T10:56:53;99729.91;;;25.92;57.14
34124;BME280;13153;52.316;21.166;2023-09-19T10:59:21;99730.56;;;25.97;57.31
34124;BME280;13153;52.316;21.166;2023-09-19T11:01:52;99739.34;;;26.00;57.01
34124;BME280;13153;52.316;21.166;2023-09-19T11:07:13;99731.06;;;26.05;57.18
34124;BME280;13153;52.316;21.166;2023-09-19T11:15:00;99729.66;;;26.15;56.76
34124;BME280;13153;52.316;21.166;2023-09-19T11:17:41;99731.34;;;26.18;56.86
34124;BME280;13153;52.316;21.166;2023-09-19T11:30:45;99749.06;;;26.23;57.14
34124;BME280;13153;52.316;21.166;2023-09-19T11:33:29;99750.81;;;26.24;57.12
34124;BME280;13153;52.316;21.166;2023-09-19T11:36:16;99744.41;;;26.27;57.31
34124;BME280;13153;52.316;21.166;2023-09-19T11:46:21;99741.22;;;26.38;57.29
34124;BME280;13153;52.316;21.166;2023-09-19T11:48:51;99749.81;;;26.46;57.38
34124;BME280;13153;52.316;21.166;2023-09-19T11:51:25;99744.28;;;26.49;57.46
34124;BME280;13153;52.316;21.166;2023-09-19T11:53:57;99744.78;;;26.57;57.50
34124;BME280;13153;52.316;21.166;2023-09-19T11:56:26;99743.56;;;26.62;57.29
34124;BME280;13153;52.316;21.166;2023-09-19T11:58:57;99745.31;;;26.63;57.24
34124;BME280;13153;52.316;21.166;2023-09-19T12:01:31;99747.84;;;26.67;56.89
34124;BME280;13153;52.316;21.166;2023-09-19T12:04:01;99744.22;;;26.68;56.78
34124;BME280;13153;52.316;21.166;2023-09-19T12:06:29;99751.44;;;26.67;56.74
34124;BME280;13153;52.316;21.166;2023-09-19T12:08:55;99750.56;;;26.67;56.88
34124;BME280;13153;52.316;21.166;2023-09-19T12:11:23;99766.81;;;26.65;56.71
34124;BME280;13153;52.316;21.166;2023-09-19T12:13:50;99766.03;;;26.63;56.45
34124;BME280;13153;52.316;21.166;2023-09-19T12:16:20;99768.00;;;26.59;56.49
34124;BME280;13153;52.316;21.166;2023-09-19T12:18:49;99771.56;;;26.60;56.63
34124;BME280;13153;52.316;21.166;2023-09-19T12:21:29;99776.03;;;26.61;56.41
34124;BME280;13153;52.316;21.166;2023-09-19T12:24:13;99769.53;;;26.65;56.50
34124;BME280;13153;52.316;21.166;2023-09-19T12:26:41;99772.88;;;26.70;56.30
34124;BME280;13153;52.316;21.166;2023-09-19T12:29:17;99769.06;;;26.74;56.41
34124;BME280;13153;52.316;21.166;2023-09-19T12:31:59;99773.81;;;26.69;56.61
34124;BME280;13153;52.316;21.166;2023-09-19T12:34:32;99781.28;;;26.64;56.64
34124;BME280;13153;52.316;21.166;2023-09-19T12:37:09;99780.31;;;26.65;56.67
34124;BME280;13153;52.316;21.166;2023-09-19T12:39:45;99786.72;;;26.81;56.22
34124;BME280;13153;52.316;21.166;2023-09-19T12:42:26;99786.63;;;26.83;55.57
34124;BME280;13153;52.316;21.166;2023-09-19T12:44:58;99783.00;;;26.84;55.72
34124;BME280;13153;52.316;21.166;2023-09-19T12:47:28;99793.50;;;26.71;56.29
34124;BME280;13153;52.316;21.166;2023-09-19T12:50:14;99793.75;;;26.67;56.42
34124;BME280;13153;52.316;21.166;2023-09-19T12:52:49;99793.09;;;26.61;56.64
34124;BME280;13153;52.316;21.166;2023-09-19T12:55:28;99789.84;;;26.55;57.03
34124;BME280;13153;52.316;21.166;2023-09-19T13:00:37;99795.09;;;26.39;57.49
34124;BME280;13153;52.316;21.166;2023-09-19T13:05:56;99792.88;;;26.28;57.73
34124;BME280;13153;52.316;21.166;2023-09-19T13:08:32;99793.16;;;26.22;57.64
34124;BME280;13153;52.316;21.166;2023-09-19T13:11:12;99784.41;;;26.17;57.69
34124;BME280;13153;52.316;21.166;2023-09-19T13:13:51;99782.81;;;26.13;57.78
34124;BME280;13153;52.316;21.166;2023-09-19T13:19:41;99783.16;;;26.06;57.73
34124;BME280;13153;52.316;21.166;2023-09-19T13:22:44;99781.47;;;26.03;57.83
34124;BME280;13153;52.316;21.166;2023-09-19T13:25:22;99782.44;;;26.02;58.07
34124;BME280;13153;52.316;21.166;2023-09-19T13:27:49;99782.59;;;25.99;58.21
34124;BME280;13153;52.316;21.166;2023-09-19T13:30:21;99787.88;;;26.00;58.16
34124;BME280;13153;52.316;21.166;2023-09-19T13:32:47;99788.00;;;25.99;58.02
34124;BME280;13153;52.316;21.166;2023-09-19T13:35:14;99791.72;;;25.96;58.34
34124;BME280;13153;52.316;21.166;2023-09-19T13:37:42;99790.03;;;25.94;58.41
34124;BME280;13153;52.316;21.166;2023-09-19T13:40:13;99790.03;;;25.94;58.35
34124;BME280;13153;52.316;21.166;2023-09-19T13:42:41;99787.34;;;25.94;58.26
34124;BME280;13153;52.316;21.166;2023-09-19T13:45:08;99782.88;;;25.93;58.36
34124;BME280;13153;52.316;21.166;2023-09-19T13:47:38;99786.59;;;25.90;58.36
34124;BME280;13153;52.316;21.166;2023-09-19T13:50:05;99791.13;;;25.90;58.60
34124;BME280;13153;52.316;21.166;2023-09-19T13:52:31;99786.59;;;25.90;58.45
34124;BME280;13153;52.316;21.166;2023-09-19T13:54:58;99792.00;;;25.90;58.72
34124;BME280;13153;52.316;21.166;2023-09-19T13:57:24;99796.50;;;25.90;58.68